Time,TemperatureF,DewpointF,PressureIn,WindDirection,WindDirectionDegrees,WindSpeedMPH,WindSpeedGustMPH,Humidity,HourlyPrecipIn,Conditions,Clouds,dailyrainin,SoftwareType,DateUTC
2016-07-23 00:05:00,79.0,34.0,-100.00,SE,126,3.0,4.0,20,-99.99,,,-99.99,,2016-07-23 07:05:00,
2016-07-23 00:36:00,78.0,34.0,-100.00,SE,133,2.0,3.0,20,-99.99,,,-99.99,,2016-07-23 07:36:00,
2016-07-23 00:50:00,80.0,33.0,-100.00,SE,139,2.0,3.0,18,-99.99,,,-99.99,,2016-07-23 07:50:00,
2016-07-23 01:14:00,81.0,31.0,-100.00,South,179,1.0,-999.0,16,-99.99,,,-99.99,,2016-07-23 08:14:00,
2016-07-23 01:24:00,80.0,31.0,-100.00,South,189,1.0,-999.0,17,-99.99,,,-99.99,,2016-07-23 08:24:00,
2016-07-23 01:35:00,80.0,30.0,-100.00,South,169,1.0,-999.0,16,-99.99,,,-99.99,,2016-07-23 08:35:00,
2016-07-23 01:46:00,79.0,29.0,-100.00,SSE,160,1.0,2.0,16,-99.99,,,-99.99,,2016-07-23 08:46:00,
2016-07-23 02:14:00,79.0,29.0,-100.00,SSE,155,2.0,-999.0,16,-99.99,,,-99.99,,2016-07-23 09:14:00,
2016-07-23 02:24:00,80.0,27.0,-100.00,SSE,158,2.0,-999.0,14,-99.99,,,-99.99,,2016-07-23 09:24:00,
2016-07-23 02:34:00,80.0,25.0,-100.00,SSE,156,1.0,-999.0,13,-99.99,,,-99.99,,2016-07-23 09:34:00,
2016-07-23 02:54:00,80.0,25.0,-100.00,SSE,164,1.0,-999.0,13,-99.99,,,-99.99,,2016-07-23 09:54:00,
2016-07-23 03:23:00,82.0,24.0,-100.00,SSE,149,2.0,-999.0,12,-99.99,,,-99.99,,2016-07-23 10:23:00,
2016-07-23 03:32:00,80.0,27.0,-100.00,SE,142,-999.9,-999.0,14,-99.99,,,-99.99,,2016-07-23 10:32:00,
2016-07-23 04:14:00,79.0,36.0,-100.00,SSE,153,1.0,-999.0,21,-99.99,,,-99.99,,2016-07-23 11:14:00,
2016-07-23 04:22:00,78.0,35.0,-100.00,SE,137,1.0,-999.0,21,-99.99,,,-99.99,,2016-07-23 11:22:00,
2016-07-23 04:30:00,79.0,34.0,-100.00,SE,130,2.0,-999.0,20,-99.99,,,-99.99,,2016-07-23 11:30:00,
2016-07-23 04:43:00,78.0,35.0,-100.00,SSE,151,1.0,4.0,21,-99.99,,,-99.99,,2016-07-23 11:43:00,
2016-07-23 04:53:00,78.0,37.0,-100.00,SE,130,2.0,-999.0,23,-99.99,,,-99.99,,2016-07-23 11:53:00,
2016-07-23 04:59:00,79.0,38.0,-100.00,SE,128,2.0,3.0,23,-99.99,,,-99.99,,2016-07-23 11:59:00,
2016-07-23 05:17:00,78.0,39.0,-100.00,SE,136,1.0,3.0,25,-99.99,,,-99.99,,2016-07-23 12:17:00,
2016-07-23 05:25:00,78.0,38.0,-100.00,SE,135,2.0,-999.0,24,-99.99,,,-99.99,,2016-07-23 12:25:00,
2016-07-23 05:35:00,78.0,39.0,-100.00,SE,144,1.0,-999.0,25,-99.99,,,-99.99,,2016-07-23 12:35:00,
2016-07-23 06:18:00,78.0,40.0,-100.00,SSE,147,1.0,1.0,26,-99.99,,,-99.99,,2016-07-23 13:18:00,
2016-07-23 06:25:00,77.0,39.0,-100.00,SE,135,2.0,-999.0,26,-99.99,,,-99.99,,2016-07-23 13:25:00,
2016-07-23 07:06:00,80.0,34.0,-100.00,ESE,114,4.0,5.0,19,-99.99,,,-99.99,,2016-07-23 14:06:00,
2016-07-23 07:16:00,83.0,34.0,-100.00,ESE,110,5.0,8.0,17,-99.99,,,-99.99,,2016-07-23 14:16:00,
2016-07-23 07:26:00,84.0,31.0,-100.00,ESE,109,5.0,8.0,15,-99.99,,,-99.99,,2016-07-23 14:26:00,
2016-07-23 07:35:00,84.0,31.0,-100.00,ESE,109,5.0,-999.0,15,-99.99,,,-99.99,,2016-07-23 14:35:00,
2016-07-23 07:45:00,85.0,32.0,-100.00,ESE,111,4.0,-999.0,15,-99.99,,,-99.99,,2016-07-23 14:45:00,
2016-07-23 08:14:00,85.0,35.0,-100.00,ENE,68,6.0,-999.0,17,-99.99,,,-99.99,,2016-07-23 15:14:00,
2016-07-23 09:13:00,87.0,38.0,-100.00,East,88,6.0,-999.0,18,-99.99,,,-99.99,,2016-07-23 16:13:00,
2016-07-23 09:23:00,88.0,39.0,-100.00,ENE,69,-999.9,-999.0,18,-99.99,,,-99.99,,2016-07-23 16:23:00,